This is the latest recevied weather packets stored in our database for station/object K7SFN. If no packets are shown the sender has not sent any weather packets the latest 10 day(s).
| Time | Temp. | Humidity | Pressure | Rain* | Wind** | Luminosity | Snow |
|---|---|---|---|---|---|---|---|
| 1777837504 | 21.11° C | 32% | 1011.5 hPa | 0 mm | - | - | - |
| 1777833904 | 20° C | 38% | 1012.7 hPa | 0 mm | - | - | - |
| 1777827305 | 15.56° C | 63% | 1013.8 hPa | 0 mm | - | - | - |
| 1777826105 | 14.44° C | 63% | 1013.9 hPa | 0 mm | - | - | - |
| 1777819804 | 10.56° C | 80% | 1014.5 hPa | 0 mm | - | - | - |
| 1777818305 | 9.44° C | 85% | 1014.5 hPa | 0 mm | - | - | - |
| 1777814104 | 7.78° C | 89% | 1014.3 hPa | 0 mm | - | - | - |
| 1777812904 | 7.78° C | 89% | 1014.3 hPa | 0 mm | - | - | - |
| 1777812004 | 7.78° C | 90% | 1014.3 hPa | 0 mm | - | - | - |
| 1777811404 | 7.78° C | 90% | 1014.5 hPa | 0 mm | - | - | - |
| 1777808404 | 8.33° C | 87% | 1014.7 hPa | 0 mm | - | - | - |
| 1777806605 | 8.33° C | 86% | 1014.8 hPa | 0 mm | - | - | - |
| 1777804205 | 9.44° C | 86% | 1015 hPa | 0 mm | - | - | - |
| 1777803904 | 10° C | 86% | 1015.1 hPa | 0 mm | - | - | - |
| 1777802105 | 10.56° C | 81% | 1015 hPa | 0 mm | - | - | - |
| 1777801205 | 10.56° C | 82% | 1015.2 hPa | 0 mm | - | - | - |
| 1777799404 | 10.56° C | 83% | 1015.5 hPa | 0 mm | - | - | - |
| 1777797305 | 10.56° C | 84% | 1015.8 hPa | 0 mm | - | - | - |
| 1777796404 | 10.56° C | 84% | 1016.1 hPa | 0 mm | - | - | - |
| 1777795204 | 11.11° C | 83% | 1016.1 hPa | 0 mm | - | - | - |
| 1777794005 | 11.11° C | 81% | 1015.8 hPa | 0 mm | - | - | - |
| 1777791904 | 11.67° C | 80% | 1016.1 hPa | 0 mm | - | - | - |
| 1777791004 | 11.67° C | 80% | 1016 hPa | 0 mm | - | - | - |
| 1777789505 | 11.67° C | 76% | 1016.2 hPa | 0 mm | - | - | - |
| 1777785004 | 12.22° C | 74% | 1016.4 hPa | 0.25 mm | - | - | - |
* Rain latest hour (hover to see other rain measurements)
** Current wind speed in m/s (hover to see current wind gust speed)